Morriston, Mississippi
Current Conditions -  °F | °C
As of 4:53 PM on Saturday 20 Dec 2014 (Local Time) from KHBG Reporting Station
Overcast Overcast  
Wind Chill: 53°   Ceiling: 1800
Heat Index: 53°   Visibility: 10mi
Dew Point: 46°   Wind: 7mph
Humidity: 77%   Direction: 40°NE
Pressure: 30.16"   Gusts: NA
Location:  31.1996°N, 89.2694°W
Report Text: KHBG 202253Z AUTO 04006KT 10SM OVC018 12/08 A3016 RMK AO2 SLP213 T01170078
Loading
Personal Weather Stations






























Interactive Weather Map New forecast layout! Learn more

10-Day Weather Forecast

Advertisements
Track Severe Weather on mobile